Detall de PIREP

Printer-friendly versionPDF version

[2010/05/30 11:38:00]
Flight IATA:CT2205
Pilot Number:026
Company ICAO:CAT
Aircraft Type:DC85/A
PAX:136
Departing Airport: LFRB
Destination Airport: LFMP
Alternate Airport:LFBO
Online: VATSIM
Route:ARE UM616 TUPAR UM184 CNA GAI/N0290F190 G36 ORBIL
Flight Level:FL330
No Slew and time accel
No pause
Crash detect
Detect pilot in Cockpit between each 30 and 45 minutes
11:38 Zero fuel Weight: 194527 Lbs, Fuel Weight: 26997 Lbs
11:38 VATSIM:LFRB 301100Z 27010KT 9999 BKN018 BKN086 16/11 Q1019 NOSIG
11:38 VATSIM:LFMP 301100Z 31017KT 280V340 9999 FEW060 BKN200 24/12 Q1020 NOSIG
11:38 VOICE CATALONIAN
11:47 Parking Brakes off
11:57 Take-off
11:57 Take off Weight: 220308 Lbs
11:57 Wind: 297º @ 010 Knots Heading: 253º
11:57 POS N48º 26´ 49´´ W004º 25´ 19´´
11:57 Gear Up: 158 Knots
11:57 Flaps:2 at 158 Knots
11:58 Flaps:1 at 165 Knots
11:58 Flaps:0 at 200 Knots
12:12 Wind:2
96º@040 Knots Heading: 130º Ground Speed: 386 Knots Altitude 25656 ft
12:20 TOC
12:20 Fuel Weight: 20327 Lb
12:27 Wind:292º@040 Knots Heading: 142º Ground Speed: 492 Knots Altitude 33113 ft
12:42 Wind:267º@051 Knots Heading: 158º Ground Speed: 473 Knots Altitude 33257 ft
12:51 TOD
12:51 Fuel Weight: 14285 Lb
12:57 Wind:275º@064 Knots Heading: 146º Ground Speed: 415 Knots Altitude 24278 ft
13:08 Flaps:1 at 281 Knots
13:12 Wind:307º@013 Knots Heading: 171º Ground Speed: 248 Knots Altitude 2417 ft
13:12 Flaps:2 at 214 Knots
13:15 Flaps:3 at 206 Knots
13:15 Flaps:4 at 196 Knots
13:15 Flaps:3 at 195 Knots
13:15 Gear Down: 195 Knots
13:16 Flaps:4 at 180 Knots
13:16 Flaps:5 at 171 Knots
13:18 TouchDown:Rate -689 ft/min Speed: 135 Knots
13:18 VATSIM:LFMP 301300Z 31012KT 280V340 9999 FEW060 BKN230 25/13 Q1020 NOSIG
13:18 Land
13:18 Wind:303º@012 Knots
13:18 Heading
: 327º
13:18 Flight Duration: 01:21
13:18 Landing Weight: 206010 Lbs
13:18 POS N42º 45´ 03´´ E002º 51´ 51´´
13:23 Parking brakes on
13:23 Block to Block Duration: 01:36
13:23 Final Fuel: 10914 Lbls
13:23 Spent Fuel: 16082 Lbls
13:23 Flight Length: 526 NM
13:23 TOD Land Length: 153 NM

Exportar CSV

Powered by Drupal - Modified by Danger4k